sensor_id;sensor_type;location;lat;lon;timestamp;P1;durP1;ratioP1;P2;durP2;ratioP2
14203;SDS011;7185;51.854;6.622;2024-02-23T00:02:22;7.05;;;2.20;;
14203;SDS011;7185;51.854;6.622;2024-02-23T00:04:56;9.25;;;2.42;;
14203;SDS011;7185;51.854;6.622;2024-02-23T00:07:27;5.32;;;2.28;;
14203;SDS011;7185;51.854;6.622;2024-02-23T00:09:59;6.68;;;2.08;;
14203;SDS011;7185;51.854;6.622;2024-02-23T00:12:30;7.05;;;2.40;;
14203;SDS011;7185;51.854;6.622;2024-02-23T00:15:02;8.82;;;2.60;;
14203;SDS011;7185;51.854;6.622;2024-02-23T00:17:34;7.40;;;2.42;;
14203;SDS011;7185;51.854;6.622;2024-02-23T00:20:10;8.38;;;2.30;;
14203;SDS011;7185;51.854;6.622;2024-02-23T00:22:42;8.37;;;2.63;;
14203;SDS011;7185;51.854;6.622;2024-02-23T00:25:13;7.85;;;2.15;;
14203;SDS011;7185;51.854;6.622;2024-02-23T00:27:45;11.32;;;2.60;;
14203;SDS011;7185;51.854;6.622;2024-02-23T00:30:17;8.13;;;2.25;;
14203;SDS011;7185;51.854;6.622;2024-02-23T00:32:49;5.50;;;2.05;;
14203;SDS011;7185;51.854;6.622;2024-02-23T00:35:22;6.50;;;2.22;;
14203;SDS011;7185;51.854;6.622;2024-02-23T00:37:54;5.82;;;2.05;;
14203;SDS011;7185;51.854;6.622;2024-02-23T00:40:25;6.53;;;2.25;;
14203;SDS011;7185;51.854;6.622;2024-02-23T00:42:57;7.80;;;2.10;;
14203;SDS011;7185;51.854;6.622;2024-02-23T00:45:30;7.72;;;2.33;;
14203;SDS011;7185;51.854;6.622;2024-02-23T00:48:02;6.45;;;2.00;;
14203;SDS011;7185;51.854;6.622;2024-02-23T00:50:35;6.10;;;1.70;;
14203;SDS011;7185;51.854;6.622;2024-02-23T00:53:07;7.60;;;2.08;;
14203;SDS011;7185;51.854;6.622;2024-02-23T00:55:38;8.52;;;2.03;;
14203;SDS011;7185;51.854;6.622;2024-02-23T00:58:10;7.15;;;2.60;;
14203;SDS011;7185;51.854;6.622;2024-02-23T01:00:42;6.20;;;1.88;;
14203;SDS011;7185;51.854;6.622;2024-02-23T01:03:13;7.25;;;2.33;;
14203;SDS011;7185;51.854;6.622;2024-02-23T01:05:46;5.63;;;2.20;;
14203;SDS011;7185;51.854;6.622;2024-02-23T01:08:18;8.00;;;2.38;;
14203;SDS011;7185;51.854;6.622;2024-02-23T01:10:50;8.20;;;2.35;;
14203;SDS011;7185;51.854;6.622;2024-02-23T01:13:22;4.60;;;1.50;;
14203;SDS011;7185;51.854;6.622;2024-02-23T01:15:53;4.35;;;1.73;;
14203;SDS011;7185;51.854;6.622;2024-02-23T01:18:25;5.22;;;1.77;;
14203;SDS011;7185;51.854;6.622;2024-02-23T01:20:58;6.45;;;2.13;;
14203;SDS011;7185;51.854;6.622;2024-02-23T01:23:30;7.30;;;1.83;;
14203;SDS011;7185;51.854;6.622;2024-02-23T01:26:02;6.00;;;2.33;;
14203;SDS011;7185;51.854;6.622;2024-02-23T01:28:33;8.50;;;2.13;;
14203;SDS011;7185;51.854;6.622;2024-02-23T01:31:07;5.32;;;1.67;;
14203;SDS011;7185;51.854;6.622;2024-02-23T01:33:40;4.57;;;1.73;;
14203;SDS011;7185;51.854;6.622;2024-02-23T01:36:13;5.72;;;1.60;;
14203;SDS011;7185;51.854;6.622;2024-02-23T01:38:45;7.32;;;1.70;;
14203;SDS011;7185;51.854;6.622;2024-02-23T01:41:16;4.95;;;2.00;;
14203;SDS011;7185;51.854;6.622;2024-02-23T01:43:51;5.15;;;1.95;;
14203;SDS011;7185;51.854;6.622;2024-02-23T01:46:22;4.60;;;1.67;;
14203;SDS011;7185;51.854;6.622;2024-02-23T01:48:54;5.88;;;1.50;;
14203;SDS011;7185;51.854;6.622;2024-02-23T01:51:27;5.25;;;1.75;;
14203;SDS011;7185;51.854;6.622;2024-02-23T01:53:59;4.68;;;1.58;;
14203;SDS011;7185;51.854;6.622;2024-02-23T01:56:31;6.82;;;1.70;;
14203;SDS011;7185;51.854;6.622;2024-02-23T01:59:04;5.18;;;1.50;;
14203;SDS011;7185;51.854;6.622;2024-02-23T02:01:35;5.45;;;1.88;;
14203;SDS011;7185;51.854;6.622;2024-02-23T02:04:07;4.80;;;1.60;;
14203;SDS011;7185;51.854;6.622;2024-02-23T02:06:40;5.10;;;1.60;;
14203;SDS011;7185;51.854;6.622;2024-02-23T02:09:12;4.70;;;1.80;;
14203;SDS011;7185;51.854;6.622;2024-02-23T02:11:46;5.85;;;1.77;;
14203;SDS011;7185;51.854;6.622;2024-02-23T02:14:21;4.72;;;1.60;;
14203;SDS011;7185;51.854;6.622;2024-02-23T02:16:53;4.95;;;1.67;;
14203;SDS011;7185;51.854;6.622;2024-02-23T02:19:24;4.65;;;1.45;;
14203;SDS011;7185;51.854;6.622;2024-02-23T02:21:57;7.68;;;2.10;;
14203;SDS011;7185;51.854;6.622;2024-02-23T02:24:29;6.57;;;1.70;;
14203;SDS011;7185;51.854;6.622;2024-02-23T02:27:01;4.55;;;1.60;;
14203;SDS011;7185;51.854;6.622;2024-02-23T02:29:34;6.05;;;2.20;;
14203;SDS011;7185;51.854;6.622;2024-02-23T02:32:06;4.85;;;1.85;;
14203;SDS011;7185;51.854;6.622;2024-02-23T02:34:39;3.55;;;1.55;;
14203;SDS011;7185;51.854;6.622;2024-02-23T02:37:12;5.72;;;1.98;;
14203;SDS011;7185;51.854;6.622;2024-02-23T02:39:43;6.80;;;1.88;;
14203;SDS011;7185;51.854;6.622;2024-02-23T02:42:15;4.47;;;1.63;;
14203;SDS011;7185;51.854;6.622;2024-02-23T02:44:46;5.45;;;1.52;;
14203;SDS011;7185;51.854;6.622;2024-02-23T02:47:18;3.55;;;1.38;;
14203;SDS011;7185;51.854;6.622;2024-02-23T02:49:49;3.47;;;1.25;;
14203;SDS011;7185;51.854;6.622;2024-02-23T02:52:23;3.47;;;1.50;;
14203;SDS011;7185;51.854;6.622;2024-02-23T02:54:55;3.42;;;1.55;;
14203;SDS011;7185;51.854;6.622;2024-02-23T02:57:27;7.85;;;1.50;;
14203;SDS011;7185;51.854;6.622;2024-02-23T03:00:00;5.20;;;1.65;;
14203;SDS011;7185;51.854;6.622;2024-02-23T03:02:31;3.75;;;1.35;;
14203;SDS011;7185;51.854;6.622;2024-02-23T03:05:04;2.90;;;1.20;;
14203;SDS011;7185;51.854;6.622;2024-02-23T03:07:37;3.58;;;1.10;;
14203;SDS011;7185;51.854;6.622;2024-02-23T03:10:09;3.50;;;1.40;;
14203;SDS011;7185;51.854;6.622;2024-02-23T03:12:41;4.10;;;1.48;;
14203;SDS011;7185;51.854;6.622;2024-02-23T03:15:12;3.45;;;1.40;;
14203;SDS011;7185;51.854;6.622;2024-02-23T03:17:44;5.68;;;1.48;;
14203;SDS011;7185;51.854;6.622;2024-02-23T03:20:15;3.17;;;1.42;;
14203;SDS011;7185;51.854;6.622;2024-02-23T03:22:50;3.03;;;1.20;;
14203;SDS011;7185;51.854;6.622;2024-02-23T03:25:22;5.55;;;1.67;;
14203;SDS011;7185;51.854;6.622;2024-02-23T03:27:53;3.17;;;1.42;;
14203;SDS011;7185;51.854;6.622;2024-02-23T03:30:25;3.55;;;1.50;;
14203;SDS011;7185;51.854;6.622;2024-02-23T03:32:57;3.38;;;1.40;;
14203;SDS011;7185;51.854;6.622;2024-02-23T03:35:28;5.53;;;1.50;;
14203;SDS011;7185;51.854;6.622;2024-02-23T03:38:01;3.63;;;1.63;;
14203;SDS011;7185;51.854;6.622;2024-02-23T03:40:33;6.13;;;1.70;;
14203;SDS011;7185;51.854;6.622;2024-02-23T03:43:06;2.72;;;1.20;;
14203;SDS011;7185;51.854;6.622;2024-02-23T03:45:37;3.55;;;1.10;;
14203;SDS011;7185;51.854;6.622;2024-02-23T03:48:09;4.72;;;1.73;;
14203;SDS011;7185;51.854;6.622;2024-02-23T03:50:41;2.60;;;1.30;;
14203;SDS011;7185;51.854;6.622;2024-02-23T03:53:13;5.53;;;1.45;;
14203;SDS011;7185;51.854;6.622;2024-02-23T03:55:45;3.50;;;1.38;;
14203;SDS011;7185;51.854;6.622;2024-02-23T03:58:19;5.82;;;1.60;;
14203;SDS011;7185;51.854;6.622;2024-02-23T04:00:51;3.70;;;1.30;;
14203;SDS011;7185;51.854;6.622;2024-02-23T04:03:23;3.50;;;1.45;;
14203;SDS011;7185;51.854;6.622;2024-02-23T04:05:54;2.97;;;1.50;;
14203;SDS011;7185;51.854;6.622;2024-02-23T04:08:27;2.60;;;1.30;;
14203;SDS011;7185;51.854;6.622;2024-02-23T04:10:59;3.72;;;1.23;;
14203;SDS011;7185;51.854;6.622;2024-02-23T04:13:31;4.05;;;1.58;;
14203;SDS011;7185;51.854;6.622;2024-02-23T04:16:02;3.47;;;1.20;;
14203;SDS011;7185;51.854;6.622;2024-02-23T04:18:34;2.50;;;1.10;;
14203;SDS011;7185;51.854;6.622;2024-02-23T04:21:06;3.63;;;1.40;;
14203;SDS011;7185;51.854;6.622;2024-02-23T04:23:39;2.95;;;1.20;;
14203;SDS011;7185;51.854;6.622;2024-02-23T04:26:10;5.50;;;1.30;;
14203;SDS011;7185;51.854;6.622;2024-02-23T04:28:42;4.50;;;1.30;;
14203;SDS011;7185;51.854;6.622;2024-02-23T04:31:14;3.40;;;1.23;;
14203;SDS011;7185;51.854;6.622;2024-02-23T04:33:45;2.42;;;1.20;;
14203;SDS011;7185;51.854;6.622;2024-02-23T04:36:18;3.38;;;1.48;;
14203;SDS011;7185;51.854;6.622;2024-02-23T04:38:51;3.70;;;0.93;;
14203;SDS011;7185;51.854;6.622;2024-02-23T04:41:23;2.83;;;1.08;;
14203;SDS011;7185;51.854;6.622;2024-02-23T04:43:55;3.83;;;1.13;;
14203;SDS011;7185;51.854;6.622;2024-02-23T04:46:30;3.30;;;1.30;;
14203;SDS011;7185;51.854;6.622;2024-02-23T04:49:04;3.45;;;1.23;;
14203;SDS011;7185;51.854;6.622;2024-02-23T04:51:35;5.82;;;1.45;;
14203;SDS011;7185;51.854;6.622;2024-02-23T04:54:08;2.45;;;1.10;;
14203;SDS011;7185;51.854;6.622;2024-02-23T04:56:40;3.58;;;1.20;;
14203;SDS011;7185;51.854;6.622;2024-02-23T04:59:12;3.55;;;1.33;;
14203;SDS011;7185;51.854;6.622;2024-02-23T05:01:43;3.25;;;1.30;;
14203;SDS011;7185;51.854;6.622;2024-02-23T05:04:15;2.58;;;1.10;;
14203;SDS011;7185;51.854;6.622;2024-02-23T05:06:46;3.53;;;1.45;;
14203;SDS011;7185;51.854;6.622;2024-02-23T05:09:19;4.85;;;1.38;;
14203;SDS011;7185;51.854;6.622;2024-02-23T05:11:51;4.10;;;1.55;;
14203;SDS011;7185;51.854;6.622;2024-02-23T05:14:23;4.90;;;1.40;;
14203;SDS011;7185;51.854;6.622;2024-02-23T05:16:54;3.42;;;1.10;;
14203;SDS011;7185;51.854;6.622;2024-02-23T05:19:26;4.75;;;1.20;;
14203;SDS011;7185;51.854;6.622;2024-02-23T05:21:58;4.20;;;1.55;;
14203;SDS011;7185;51.854;6.622;2024-02-23T05:24:31;3.28;;;1.10;;
14203;SDS011;7185;51.854;6.622;2024-02-23T05:27:02;2.47;;;1.30;;
14203;SDS011;7185;51.854;6.622;2024-02-23T05:29:34;3.72;;;1.00;;
14203;SDS011;7185;51.854;6.622;2024-02-23T05:32:06;3.30;;;1.30;;
14203;SDS011;7185;51.854;6.622;2024-02-23T05:34:38;2.42;;;1.02;;
14203;SDS011;7185;51.854;6.622;2024-02-23T05:37:09;3.88;;;1.40;;
14203;SDS011;7185;51.854;6.622;2024-02-23T05:39:42;4.45;;;1.33;;
14203;SDS011;7185;51.854;6.622;2024-02-23T05:42:16;4.00;;;1.33;;
14203;SDS011;7185;51.854;6.622;2024-02-23T05:44:47;3.15;;;1.20;;
14203;SDS011;7185;51.854;6.622;2024-02-23T05:47:19;2.95;;;1.13;;
14203;SDS011;7185;51.854;6.622;2024-02-23T05:49:51;3.45;;;1.30;;
14203;SDS011;7185;51.854;6.622;2024-02-23T05:52:23;4.88;;;1.23;;
14203;SDS011;7185;51.854;6.622;2024-02-23T05:54:56;4.95;;;1.77;;
14203;SDS011;7185;51.854;6.622;2024-02-23T05:57:30;3.65;;;1.48;;
14203;SDS011;7185;51.854;6.622;2024-02-23T06:00:02;5.53;;;1.30;;
14203;SDS011;7185;51.854;6.622;2024-02-23T06:02:34;6.40;;;1.30;;
14203;SDS011;7185;51.854;6.622;2024-02-23T06:05:06;5.32;;;1.65;;
14203;SDS011;7185;51.854;6.622;2024-02-23T06:07:38;4.65;;;1.23;;
14203;SDS011;7185;51.854;6.622;2024-02-23T06:10:11;5.00;;;1.40;;
14203;SDS011;7185;51.854;6.622;2024-02-23T06:12:43;4.72;;;1.48;;
14203;SDS011;7185;51.854;6.622;2024-02-23T06:15:14;2.85;;;1.10;;
14203;SDS011;7185;51.854;6.622;2024-02-23T06:17:46;3.13;;;1.00;;
14203;SDS011;7185;51.854;6.622;2024-02-23T06:20:18;5.03;;;1.10;;
14203;SDS011;7185;51.854;6.622;2024-02-23T06:22:51;4.40;;;1.35;;
14203;SDS011;7185;51.854;6.622;2024-02-23T06:25:23;4.85;;;1.10;;
14203;SDS011;7185;51.854;6.622;2024-02-23T06:27:55;5.93;;;1.38;;
14203;SDS011;7185;51.854;6.622;2024-02-23T06:30:27;4.35;;;1.67;;
14203;SDS011;7185;51.854;6.622;2024-02-23T06:32:58;4.85;;;1.27;;
14203;SDS011;7185;51.854;6.622;2024-02-23T06:35:30;6.60;;;1.60;;
14203;SDS011;7185;51.854;6.622;2024-02-23T06:38:02;5.50;;;1.40;;
14203;SDS011;7185;51.854;6.622;2024-02-23T06:40:37;8.25;;;1.63;;
14203;SDS011;7185;51.854;6.622;2024-02-23T06:43:08;7.43;;;1.48;;
14203;SDS011;7185;51.854;6.622;2024-02-23T06:45:40;6.22;;;1.40;;
14203;SDS011;7185;51.854;6.622;2024-02-23T06:48:12;8.90;;;1.10;;
14203;SDS011;7185;51.854;6.622;2024-02-23T06:50:43;6.65;;;1.40;;
14203;SDS011;7185;51.854;6.622;2024-02-23T06:53:15;4.63;;;1.23;;
14203;SDS011;7185;51.854;6.622;2024-02-23T06:55:48;7.38;;;1.48;;
14203;SDS011;7185;51.854;6.622;2024-02-23T06:58:19;4.45;;;1.33;;
14203;SDS011;7185;51.854;6.622;2024-02-23T07:00:51;5.55;;;1.20;;
14203;SDS011;7185;51.854;6.622;2024-02-23T07:03:23;2.95;;;1.10;;
14203;SDS011;7185;51.854;6.622;2024-02-23T07:05:54;3.28;;;1.20;;
14203;SDS011;7185;51.854;6.622;2024-02-23T07:08:26;2.97;;;1.00;;
14203;SDS011;7185;51.854;6.622;2024-02-23T07:10:59;5.75;;;1.30;;
14203;SDS011;7185;51.854;6.622;2024-02-23T07:13:31;6.90;;;1.23;;
14203;SDS011;7185;51.854;6.622;2024-02-23T07:16:03;3.75;;;1.33;;
14203;SDS011;7185;51.854;6.622;2024-02-23T07:18:35;3.58;;;1.20;;
14203;SDS011;7185;51.854;6.622;2024-02-23T07:21:06;5.72;;;1.13;;
14203;SDS011;7185;51.854;6.622;2024-02-23T07:23:38;5.03;;;1.13;;
14203;SDS011;7185;51.854;6.622;2024-02-23T07:26:11;4.22;;;1.10;;
14203;SDS011;7185;51.854;6.622;2024-02-23T07:28:42;4.53;;;1.10;;
14203;SDS011;7185;51.854;6.622;2024-02-23T07:31:14;4.60;;;1.30;;
14203;SDS011;7185;51.854;6.622;2024-02-23T07:33:46;4.03;;;1.33;;
14203;SDS011;7185;51.854;6.622;2024-02-23T07:36:20;3.25;;;1.08;;
14203;SDS011;7185;51.854;6.622;2024-02-23T07:38:52;3.08;;;0.82;;
14203;SDS011;7185;51.854;6.622;2024-02-23T07:41:25;3.65;;;1.10;;
14203;SDS011;7185;51.854;6.622;2024-02-23T07:43:56;3.75;;;1.02;;
14203;SDS011;7185;51.854;6.622;2024-02-23T07:46:28;5.60;;;1.25;;
14203;SDS011;7185;51.854;6.622;2024-02-23T07:49:00;3.22;;;1.17;;
14203;SDS011;7185;51.854;6.622;2024-02-23T07:51:31;4.25;;;1.30;;
14203;SDS011;7185;51.854;6.622;2024-02-23T07:54:03;5.40;;;1.15;;
14203;SDS011;7185;51.854;6.622;2024-02-23T07:56:36;4.03;;;1.00;;
14203;SDS011;7185;51.854;6.622;2024-02-23T07:59:08;4.70;;;1.20;;
14203;SDS011;7185;51.854;6.622;2024-02-23T08:01:41;2.42;;;1.00;;
14203;SDS011;7185;51.854;6.622;2024-02-23T08:04:12;2.70;;;1.00;;
14203;SDS011;7185;51.854;6.622;2024-02-23T08:06:44;4.35;;;1.05;;
14203;SDS011;7185;51.854;6.622;2024-02-23T08:09:16;3.13;;;0.80;;
14203;SDS011;7185;51.854;6.622;2024-02-23T08:11:49;4.28;;;1.00;;
14203;SDS011;7185;51.854;6.622;2024-02-23T08:14:21;4.32;;;1.30;;
14203;SDS011;7185;51.854;6.622;2024-02-23T08:16:53;3.70;;;1.20;;
14203;SDS011;7185;51.854;6.622;2024-02-23T08:19:25;3.17;;;1.15;;
14203;SDS011;7185;51.854;6.622;2024-02-23T08:21:56;2.80;;;1.15;;
14203;SDS011;7185;51.854;6.622;2024-02-23T08:24:28;2.92;;;0.93;;
14203;SDS011;7185;51.854;6.622;2024-02-23T08:27:01;2.50;;;1.00;;
14203;SDS011;7185;51.854;6.622;2024-02-23T08:29:33;4.22;;;1.30;;
14203;SDS011;7185;51.854;6.622;2024-02-23T08:32:05;2.90;;;0.90;;
14203;SDS011;7185;51.854;6.622;2024-02-23T08:34:37;2.10;;;0.95;;
14203;SDS011;7185;51.854;6.622;2024-02-23T08:37:08;3.85;;;0.90;;
14203;SDS011;7185;51.854;6.622;2024-02-23T08:39:40;4.30;;;1.20;;
14203;SDS011;7185;51.854;6.622;2024-02-23T08:42:13;3.10;;;1.10;;
14203;SDS011;7185;51.854;6.622;2024-02-23T08:44:44;2.75;;;1.00;;
14203;SDS011;7185;51.854;6.622;2024-02-23T08:47:16;2.00;;;0.70;;
14203;SDS011;7185;51.854;6.622;2024-02-23T08:49:48;3.40;;;0.90;;
14203;SDS011;7185;51.854;6.622;2024-02-23T08:52:19;3.42;;;0.90;;
14203;SDS011;7185;51.854;6.622;2024-02-23T08:54:51;2.90;;;0.93;;
14203;SDS011;7185;51.854;6.622;2024-02-23T08:57:24;3.28;;;1.10;;
14203;SDS011;7185;51.854;6.622;2024-02-23T08:59:56;3.53;;;0.80;;
14203;SDS011;7185;51.854;6.622;2024-02-23T09:02:28;3.22;;;0.88;;
14203;SDS011;7185;51.854;6.622;2024-02-23T09:04:59;3.13;;;0.80;;
14203;SDS011;7185;51.854;6.622;2024-02-23T09:07:31;3.25;;;0.95;;
14203;SDS011;7185;51.854;6.622;2024-02-23T09:10:03;4.97;;;0.93;;
14203;SDS011;7185;51.854;6.622;2024-02-23T09:12:36;2.60;;;0.88;;
14203;SDS011;7185;51.854;6.622;2024-02-23T09:15:08;3.50;;;0.90;;
14203;SDS011;7185;51.854;6.622;2024-02-23T09:17:40;4.47;;;0.98;;
14203;SDS011;7185;51.854;6.622;2024-02-23T09:20:12;3.28;;;0.95;;
14203;SDS011;7185;51.854;6.622;2024-02-23T09:22:44;3.40;;;1.20;;
14203;SDS011;7185;51.854;6.622;2024-02-23T09:25:15;5.18;;;0.90;;
14203;SDS011;7185;51.854;6.622;2024-02-23T09:27:48;3.75;;;0.80;;
14203;SDS011;7185;51.854;6.622;2024-02-23T09:30:20;4.43;;;0.90;;
14203;SDS011;7185;51.854;6.622;2024-02-23T09:32:51;2.42;;;0.80;;
14203;SDS011;7185;51.854;6.622;2024-02-23T09:35:24;1.48;;;0.73;;
14203;SDS011;7185;51.854;6.622;2024-02-23T09:37:55;3.13;;;1.00;;
14203;SDS011;7185;51.854;6.622;2024-02-23T09:40:27;3.67;;;0.88;;
14203;SDS011;7185;51.854;6.622;2024-02-23T09:43:00;4.70;;;0.90;;
14203;SDS011;7185;51.854;6.622;2024-02-23T09:45:31;2.50;;;0.93;;
14203;SDS011;7185;51.854;6.622;2024-02-23T09:48:03;3.08;;;0.98;;
14203;SDS011;7185;51.854;6.622;2024-02-23T09:50:37;3.03;;;1.08;;
14203;SDS011;7185;51.854;6.622;2024-02-23T09:53:12;5.10;;;0.90;;
14203;SDS011;7185;51.854;6.622;2024-02-23T09:55:44;2.33;;;0.80;;
14203;SDS011;7185;51.854;6.622;2024-02-23T09:58:20;5.00;;;1.13;;
14203;SDS011;7185;51.854;6.622;2024-02-23T10:00:54;4.55;;;1.00;;
14203;SDS011;7185;51.854;6.622;2024-02-23T10:03:29;2.83;;;0.70;;
14203;SDS011;7185;51.854;6.622;2024-02-23T10:06:02;2.47;;;0.77;;
14203;SDS011;7185;51.854;6.622;2024-02-23T10:08:34;2.10;;;0.98;;
14203;SDS011;7185;51.854;6.622;2024-02-23T10:11:06;2.80;;;0.80;;
14203;SDS011;7185;51.854;6.622;2024-02-23T10:13:39;4.28;;;0.73;;
14203;SDS011;7185;51.854;6.622;2024-02-23T10:16:12;4.10;;;1.00;;
14203;SDS011;7185;51.854;6.622;2024-02-23T10:18:44;2.28;;;0.80;;
14203;SDS011;7185;51.854;6.622;2024-02-23T10:21:17;3.80;;;0.80;;
14203;SDS011;7185;51.854;6.622;2024-02-23T10:23:49;6.35;;;0.90;;
14203;SDS011;7185;51.854;6.622;2024-02-23T10:26:22;2.25;;;0.70;;
14203;SDS011;7185;51.854;6.622;2024-02-23T10:28:55;1.58;;;0.60;;
14203;SDS011;7185;51.854;6.622;2024-02-23T10:31:28;1.95;;;0.70;;
14203;SDS011;7185;51.854;6.622;2024-02-23T10:34:07;2.20;;;0.88;;
14203;SDS011;7185;51.854;6.622;2024-02-23T10:36:42;3.50;;;0.75;;
14203;SDS011;7185;51.854;6.622;2024-02-23T10:39:16;2.30;;;0.80;;
14203;SDS011;7185;51.854;6.622;2024-02-23T10:41:51;1.88;;;0.85;;
14203;SDS011;7185;51.854;6.622;2024-02-23T10:44:30;2.33;;;0.80;;
14203;SDS011;7185;51.854;6.622;2024-02-23T10:47:02;2.13;;;0.70;;
14203;SDS011;7185;51.854;6.622;2024-02-23T10:49:35;1.40;;;0.70;;
14203;SDS011;7185;51.854;6.622;2024-02-23T10:52:08;1.67;;;0.82;;
14203;SDS011;7185;51.854;6.622;2024-02-23T10:54:42;2.90;;;0.80;;
14203;SDS011;7185;51.854;6.622;2024-02-23T10:57:17;3.10;;;0.90;;
14203;SDS011;7185;51.854;6.622;2024-02-23T10:59:50;1.25;;;0.68;;
14203;SDS011;7185;51.854;6.622;2024-02-23T11:02:22;1.50;;;0.50;;
14203;SDS011;7185;51.854;6.622;2024-02-23T11:04:58;1.92;;;1.00;;
14203;SDS011;7185;51.854;6.622;2024-02-23T11:07:30;4.55;;;1.02;;
14203;SDS011;7185;51.854;6.622;2024-02-23T11:10:02;2.00;;;0.70;;
14203;SDS011;7185;51.854;6.622;2024-02-23T11:12:36;2.65;;;0.80;;
14203;SDS011;7185;51.854;6.622;2024-02-23T11:15:09;1.80;;;0.70;;
14203;SDS011;7185;51.854;6.622;2024-02-23T11:17:56;1.30;;;0.50;;
14203;SDS011;7185;51.854;6.622;2024-02-23T11:20:34;2.55;;;0.70;;
14203;SDS011;7185;51.854;6.622;2024-02-23T11:23:12;1.80;;;0.55;;
14203;SDS011;7185;51.854;6.622;2024-02-23T11:25:58;7.38;;;0.75;;
14203;SDS011;7185;51.854;6.622;2024-02-23T11:28:30;3.10;;;0.73;;
14203;SDS011;7185;51.854;6.622;2024-02-23T11:31:03;1.88;;;0.70;;
14203;SDS011;7185;51.854;6.622;2024-02-23T11:33:49;2.25;;;0.75;;
14203;SDS011;7185;51.854;6.622;2024-02-23T11:36:21;2.90;;;0.80;;
14203;SDS011;7185;51.854;6.622;2024-02-23T11:38:56;3.88;;;0.82;;
14203;SDS011;7185;51.854;6.622;2024-02-23T11:41:29;2.63;;;0.82;;
14203;SDS011;7185;51.854;6.622;2024-02-23T11:44:00;1.95;;;0.70;;
14203;SDS011;7185;51.854;6.622;2024-02-23T11:46:35;2.33;;;0.80;;
14203;SDS011;7185;51.854;6.622;2024-02-23T11:49:06;1.98;;;0.80;;
14203;SDS011;7185;51.854;6.622;2024-02-23T11:51:38;5.63;;;1.02;;
14203;SDS011;7185;51.854;6.622;2024-02-23T11:54:09;2.00;;;0.70;;
14203;SDS011;7185;51.854;6.622;2024-02-23T11:56:41;2.00;;;0.70;;
14203;SDS011;7185;51.854;6.622;2024-02-23T11:59:13;3.35;;;0.60;;
14203;SDS011;7185;51.854;6.622;2024-02-23T12:01:46;3.20;;;0.85;;
14203;SDS011;7185;51.854;6.622;2024-02-23T12:04:18;4.35;;;0.82;;
14203;SDS011;7185;51.854;6.622;2024-02-23T12:06:50;7.47;;;1.05;;
14203;SDS011;7185;51.854;6.622;2024-02-23T12:09:22;4.43;;;0.73;;
14203;SDS011;7185;51.854;6.622;2024-02-23T12:11:54;3.13;;;0.93;;
14203;SDS011;7185;51.854;6.622;2024-02-23T12:14:26;3.38;;;0.80;;
14203;SDS011;7185;51.854;6.622;2024-02-23T12:16:59;2.22;;;0.73;;
14203;SDS011;7185;51.854;6.622;2024-02-23T12:19:33;5.30;;;0.80;;
14203;SDS011;7185;51.854;6.622;2024-02-23T12:22:09;3.17;;;0.85;;
14203;SDS011;7185;51.854;6.622;2024-02-23T12:24:42;3.58;;;0.82;;
14203;SDS011;7185;51.854;6.622;2024-02-23T12:27:16;3.75;;;0.70;;
14203;SDS011;7185;51.854;6.622;2024-02-23T12:29:50;4.03;;;0.70;;
14203;SDS011;7185;51.854;6.622;2024-02-23T12:32:24;3.92;;;0.70;;
14203;SDS011;7185;51.854;6.622;2024-02-23T12:34:56;2.30;;;0.70;;
14203;SDS011;7185;51.854;6.622;2024-02-23T12:37:28;4.80;;;0.70;;
14203;SDS011;7185;51.854;6.622;2024-02-23T12:39:59;1.30;;;0.50;;
14203;SDS011;7185;51.854;6.622;2024-02-23T12:42:31;3.63;;;1.00;;
14203;SDS011;7185;51.854;6.622;2024-02-23T12:45:03;3.20;;;0.80;;
14203;SDS011;7185;51.854;6.622;2024-02-23T12:47:36;3.83;;;1.00;;
14203;SDS011;7185;51.854;6.622;2024-02-23T12:50:09;1.98;;;0.70;;
14203;SDS011;7185;51.854;6.622;2024-02-23T12:52:41;2.83;;;0.80;;
14203;SDS011;7185;51.854;6.622;2024-02-23T12:55:13;3.50;;;0.70;;
14203;SDS011;7185;51.854;6.622;2024-02-23T12:57:45;2.03;;;0.60;;
14203;SDS011;7185;51.854;6.622;2024-02-23T13:00:16;3.75;;;0.85;;
14203;SDS011;7185;51.854;6.622;2024-02-23T13:02:50;3.60;;;0.80;;
14203;SDS011;7185;51.854;6.622;2024-02-23T13:05:22;2.13;;;0.65;;
14203;SDS011;7185;51.854;6.622;2024-02-23T13:07:53;2.45;;;0.82;;
14203;SDS011;7185;51.854;6.622;2024-02-23T13:10:25;4.18;;;0.90;;
14203;SDS011;7185;51.854;6.622;2024-02-23T13:12:57;1.40;;;0.70;;
14203;SDS011;7185;51.854;6.622;2024-02-23T13:15:29;3.65;;;0.85;;
14203;SDS011;7185;51.854;6.622;2024-02-23T13:18:02;3.78;;;0.90;;
14203;SDS011;7185;51.854;6.622;2024-02-23T13:20:33;2.63;;;0.70;;
14203;SDS011;7185;51.854;6.622;2024-02-23T13:23:05;2.13;;;0.70;;
14203;SDS011;7185;51.854;6.622;2024-02-23T13:25:39;1.40;;;0.60;;
14203;SDS011;7185;51.854;6.622;2024-02-23T13:28:11;2.55;;;0.70;;
14203;SDS011;7185;51.854;6.622;2024-02-23T13:30:42;2.78;;;0.77;;
14203;SDS011;7185;51.854;6.622;2024-02-23T13:33:15;5.25;;;0.77;;
14203;SDS011;7185;51.854;6.622;2024-02-23T13:35:49;1.60;;;0.70;;
14203;SDS011;7185;51.854;6.622;2024-02-23T13:38:21;1.80;;;0.68;;
14203;SDS011;7185;51.854;6.622;2024-02-23T13:40:53;3.30;;;0.77;;
14203;SDS011;7185;51.854;6.622;2024-02-23T13:43:24;1.98;;;0.60;;
14203;SDS011;7185;51.854;6.622;2024-02-23T13:45:56;1.60;;;0.60;;
14203;SDS011;7185;51.854;6.622;2024-02-23T13:48:29;4.40;;;0.80;;
14203;SDS011;7185;51.854;6.622;2024-02-23T13:51:01;14.88;;;1.35;;
14203;SDS011;7185;51.854;6.622;2024-02-23T13:53:33;9.10;;;1.05;;
14203;SDS011;7185;51.854;6.622;2024-02-23T13:56:07;5.63;;;0.90;;
14203;SDS011;7185;51.854;6.622;2024-02-23T13:58:38;4.90;;;0.80;;
14203;SDS011;7185;51.854;6.622;2024-02-23T14:01:10;3.97;;;1.00;;
14203;SDS011;7185;51.854;6.622;2024-02-23T14:03:43;4.93;;;0.90;;
14203;SDS011;7185;51.854;6.622;2024-02-23T14:06:15;5.38;;;0.88;;
14203;SDS011;7185;51.854;6.622;2024-02-23T14:08:46;4.35;;;1.00;;
14203;SDS011;7185;51.854;6.622;2024-02-23T14:11:18;4.97;;;0.90;;
14203;SDS011;7185;51.854;6.622;2024-02-23T14:13:50;4.03;;;0.80;;
14203;SDS011;7185;51.854;6.622;2024-02-23T14:16:22;7.10;;;1.00;;
14203;SDS011;7185;51.854;6.622;2024-02-23T14:18:55;5.82;;;0.82;;
14203;SDS011;7185;51.854;6.622;2024-02-23T14:21:27;4.95;;;1.00;;
14203;SDS011;7185;51.854;6.622;2024-02-23T14:23:59;2.35;;;0.70;;
14203;SDS011;7185;51.854;6.622;2024-02-23T14:26:30;1.60;;;0.68;;
14203;SDS011;7185;51.854;6.622;2024-02-23T14:29:03;3.33;;;0.73;;
14203;SDS011;7185;51.854;6.622;2024-02-23T14:31:34;3.85;;;0.80;;
14203;SDS011;7185;51.854;6.622;2024-02-23T14:34:07;6.38;;;1.02;;
14203;SDS011;7185;51.854;6.622;2024-02-23T14:36:39;5.35;;;0.90;;
14203;SDS011;7185;51.854;6.622;2024-02-23T14:39:11;10.05;;;0.93;;
14203;SDS011;7185;51.854;6.622;2024-02-23T14:41:43;6.07;;;1.13;;
14203;SDS011;7185;51.854;6.622;2024-02-23T14:44:14;3.15;;;0.80;;
14203;SDS011;7185;51.854;6.622;2024-02-23T14:46:46;4.13;;;0.88;;
14203;SDS011;7185;51.854;6.622;2024-02-23T14:49:19;4.60;;;1.00;;
14203;SDS011;7185;51.854;6.622;2024-02-23T14:51:51;5.47;;;0.98;;
14203;SDS011;7185;51.854;6.622;2024-02-23T14:54:22;4.82;;;0.95;;
14203;SDS011;7185;51.854;6.622;2024-02-23T14:56:54;2.33;;;0.65;;
14203;SDS011;7185;51.854;6.622;2024-02-23T14:59:26;9.63;;;0.90;;
14203;SDS011;7185;51.854;6.622;2024-02-23T15:01:57;3.47;;;0.93;;
14203;SDS011;7185;51.854;6.622;2024-02-23T15:04:30;7.13;;;1.13;;
14203;SDS011;7185;51.854;6.622;2024-02-23T15:07:02;3.47;;;0.90;;
14203;SDS011;7185;51.854;6.622;2024-02-23T15:09:34;4.57;;;0.90;;
14203;SDS011;7185;51.854;6.622;2024-02-23T15:12:06;3.00;;;0.90;;
14203;SDS011;7185;51.854;6.622;2024-02-23T15:14:38;3.60;;;0.90;;
14203;SDS011;7185;51.854;6.622;2024-02-23T15:17:10;2.85;;;1.08;;
14203;SDS011;7185;51.854;6.622;2024-02-23T15:19:43;6.18;;;0.95;;
14203;SDS011;7185;51.854;6.622;2024-02-23T15:22:14;3.72;;;0.93;;
14203;SDS011;7185;51.854;6.622;2024-02-23T15:24:47;2.08;;;0.80;;
14203;SDS011;7185;51.854;6.622;2024-02-23T15:27:20;3.30;;;0.75;;
14203;SDS011;7185;51.854;6.622;2024-02-23T15:29:51;4.57;;;1.02;;
14203;SDS011;7185;51.854;6.622;2024-02-23T15:32:23;2.60;;;0.88;;